createdAt,value
2022-09-24T00:00:17.395Z,98048.09
2022-09-24T00:02:20.109Z,98041.38
2022-09-24T00:04:25.738Z,98038.97
2022-09-24T00:06:30.780Z,98037.41
2022-09-24T00:08:34.356Z,98039.75
2022-09-24T00:10:42.223Z,98028.69
2022-09-24T00:12:44.975Z,98033.44
2022-09-24T00:14:47.574Z,98029.09
2022-09-24T00:16:50.256Z,98018.00
2022-09-24T00:18:54.142Z,98026.31
2022-09-24T00:20:57.408Z,98016.81
2022-09-24T00:23:01.275Z,98010.09
2022-09-24T00:25:22.708Z,98011.69
2022-09-24T00:27:25.537Z,98010.13
2022-09-24T00:29:28.130Z,97999.41
2022-09-24T00:31:31.343Z,97994.25
2022-09-24T00:33:35.275Z,97993.09
2022-09-24T00:35:41.717Z,97984.75
2022-09-24T00:37:44.820Z,97980.78
2022-09-24T00:39:47.426Z,97970.88
2022-09-24T00:41:50.000Z,97972.44
2022-09-24T00:43:52.709Z,97973.63
2022-09-24T00:46:32.572Z,97977.59
2022-09-24T00:48:35.671Z,97959.75
2022-09-24T00:50:38.361Z,97964.91
2022-09-24T00:52:53.392Z,97957.38
2022-09-24T00:54:56.180Z,97965.28
2022-09-24T00:57:00.318Z,97953.38
2022-09-24T00:59:05.021Z,97949.81
2022-09-24T01:01:08.294Z,97933.59
2022-09-24T01:03:17.287Z,97930.78
2022-09-24T01:05:20.190Z,97924.06
2022-09-24T01:07:23.332Z,97920.84
2022-09-24T01:09:27.667Z,97928.75
2022-09-24T01:11:45.040Z,97922.38
2022-09-24T01:14:41.496Z,97917.22
2022-09-24T01:17:21.620Z,97903.75
2022-09-24T01:19:48.384Z,97897.81
2022-09-24T01:21:57.970Z,97889.88
2022-09-24T01:24:40.608Z,97878.75
2022-09-24T01:27:07.690Z,97880.75
2022-09-24T01:29:42.237Z,97874.81
2022-09-24T01:32:16.196Z,97886.31
2022-09-24T01:34:24.253Z,97872.44
2022-09-24T01:36:28.478Z,97872.38
2022-09-24T01:38:35.453Z,97867.19
2022-09-24T01:40:40.218Z,97871.88
2022-09-24T01:42:45.242Z,97879.41
2022-09-24T01:44:50.501Z,97861.91
2022-09-24T01:46:54.660Z,97855.94
2022-09-24T01:48:58.680Z,97886.47
2022-09-24T01:51:23.584Z,97885.63
2022-09-24T01:53:32.265Z,97895.16
2022-09-24T01:55:42.626Z,97912.22
2022-09-24T01:58:14.841Z,97929.28
2022-09-24T02:00:19.786Z,97937.22
2022-09-24T02:02:29.229Z,97922.16
2022-09-24T02:04:36.880Z,97911.84
2022-09-24T02:06:47.806Z,97906.72
2022-09-24T02:08:50.399Z,97903.91
2022-09-24T02:11:06.914Z,97907.13
2022-09-24T02:13:14.316Z,97919.00
2022-09-24T02:15:30.110Z,97907.13
2022-09-24T02:17:38.482Z,97899.56
2022-09-24T02:19:42.822Z,97907.91
2022-09-24T02:21:46.728Z,97903.22
2022-09-24T02:23:56.908Z,97908.78
2022-09-24T02:26:04.237Z,97901.22
2022-09-24T02:28:06.851Z,97905.25
2022-09-24T02:30:11.077Z,97913.19
2022-09-24T02:32:20.172Z,97916.78
2022-09-24T02:34:29.282Z,97916.41
2022-09-24T02:36:32.319Z,97927.06
2022-09-24T02:38:35.172Z,97912.06
2022-09-24T02:40:37.796Z,97906.53
2022-09-24T02:42:42.475Z,97870.88
2022-09-24T02:44:45.163Z,97861.41
2022-09-24T02:46:48.277Z,97878.88
2022-09-24T02:48:51.015Z,97863.84
2022-09-24T02:50:54.151Z,97858.31
2022-09-24T02:52:56.695Z,97868.22
2022-09-24T02:54:59.266Z,97878.53
2022-09-24T02:57:01.920Z,97875.78
2022-09-24T02:59:05.032Z,97868.69
2022-09-24T03:01:07.577Z,97861.97
2022-09-24T03:03:10.344Z,97864.34
2022-09-24T03:05:12.941Z,97860.78
2022-09-24T03:07:15.543Z,97865.50
2022-09-24T03:09:18.235Z,97844.16
2022-09-24T03:11:22.012Z,97863.56
2022-09-24T03:13:24.711Z,97865.97
2022-09-24T03:15:27.430Z,97873.50
2022-09-24T03:17:30.073Z,97850.13
2022-09-24T03:19:32.678Z,97857.25
2022-09-24T03:21:35.499Z,97841.78
2022-09-24T03:23:38.689Z,97838.66
2022-09-24T03:25:41.433Z,97822.41
2022-09-24T03:27:44.191Z,97822.84
2022-09-24T03:30:05.313Z,97821.25
2022-09-24T03:32:07.887Z,97818.06
2022-09-24T03:34:10.586Z,97803.41
2022-09-24T03:36:24.705Z,97807.75
2022-09-24T03:38:29.498Z,97799.41
2022-09-24T03:40:32.334Z,97795.50
2022-09-24T03:42:34.961Z,97784.81
2022-09-24T03:44:37.576Z,97790.75
2022-09-24T03:46:40.255Z,97791.16
2022-09-24T03:48:43.709Z,97775.34
2022-09-24T03:50:46.908Z,97749.22
2022-09-24T03:52:49.599Z,97740.91
2022-09-24T03:54:52.470Z,97728.25
2022-09-24T03:56:55.050Z,97736.97
2022-09-24T03:58:57.736Z,97731.03
2022-09-24T04:01:00.398Z,97733.00
2022-09-24T04:03:03.075Z,97742.50
2022-09-24T04:05:06.177Z,97753.97
2022-09-24T04:07:08.812Z,97769.41
2022-09-24T04:09:11.476Z,97782.47
2022-09-24T04:11:14.151Z,97794.75
2022-09-24T04:13:17.694Z,97803.84
2022-09-24T04:15:21.819Z,97792.34
2022-09-24T04:17:24.974Z,97795.91
2022-09-24T04:19:27.554Z,97784.84
2022-09-24T04:21:30.540Z,97790.38
2022-09-24T04:23:33.272Z,97789.59
2022-09-24T04:25:35.883Z,97793.13
2022-09-24T04:27:39.192Z,97803.44
2022-09-24T04:29:42.205Z,97808.16
2022-09-24T04:31:46.290Z,97774.94
2022-09-24T04:33:48.937Z,97773.34
2022-09-24T04:35:51.734Z,97790.75
2022-09-24T04:37:54.348Z,97789.59
2022-09-24T04:39:57.217Z,97782.06
2022-09-24T04:41:59.931Z,97772.53
2022-09-24T04:44:02.565Z,97781.66
2022-09-24T04:46:06.380Z,97765.78
2022-09-24T04:48:09.232Z,97775.66
2022-09-24T04:50:12.856Z,97772.88
2022-09-24T04:52:15.841Z,97770.47
2022-09-24T04:54:18.535Z,97770.03
2022-09-24T04:56:21.192Z,97768.00
2022-09-24T04:58:23.772Z,97765.53
2022-09-24T05:00:26.636Z,97761.06
2022-09-24T05:02:29.774Z,97762.56
2022-09-24T05:04:32.439Z,97766.03
2022-09-24T05:06:36.527Z,97770.69
2022-09-24T05:08:39.216Z,97758.34
2022-09-24T05:10:41.920Z,97750.34
2022-09-24T05:12:44.595Z,97748.34
2022-09-24T05:14:47.167Z,97741.56
2022-09-24T05:16:49.958Z,97741.94
2022-09-24T05:18:52.751Z,97749.50
2022-09-24T05:20:56.335Z,97743.56
2022-09-24T05:22:58.915Z,97743.16
2022-09-24T05:25:01.556Z,97738.78
2022-09-24T05:27:10.731Z,97736.84
2022-09-24T05:29:13.517Z,97740.88
2022-09-24T05:31:17.576Z,97741.31
2022-09-24T05:33:20.395Z,97736.91
2022-09-24T05:35:24.323Z,97725.78
2022-09-24T05:37:27.094Z,97723.03
2022-09-24T05:39:33.984Z,97726.84
2022-09-24T05:41:37.481Z,97707.69
2022-09-24T05:43:41.402Z,97709.66
2022-09-24T05:45:46.823Z,97716.34
2022-09-24T05:47:50.709Z,97720.25
2022-09-24T05:49:53.461Z,97722.97
2022-09-24T05:51:56.093Z,97717.78
2022-09-24T05:53:58.845Z,97722.50
2022-09-24T05:56:01.886Z,97714.91
2022-09-24T05:58:10.489Z,97721.56
2022-09-24T06:00:13.368Z,97719.94
2022-09-24T06:02:16.129Z,97726.94
2022-09-24T06:04:18.821Z,97708.13
2022-09-24T06:06:21.368Z,97714.72
2022-09-24T06:08:24.097Z,97717.00
2022-09-24T06:10:26.686Z,97714.41
2022-09-24T06:12:29.308Z,97712.75
2022-09-24T06:14:32.025Z,97714.28
2022-09-24T06:16:35.506Z,97699.41
2022-09-24T06:18:40.870Z,97704.44
2022-09-24T06:20:45.077Z,97694.81
2022-09-24T06:22:48.105Z,97688.31
2022-09-24T06:24:51.697Z,97683.50
2022-09-24T06:26:54.863Z,97676.38
2022-09-24T06:29:00.869Z,97674.28
2022-09-24T06:31:08.266Z,97681.69
2022-09-24T06:33:13.330Z,97688.75
2022-09-24T06:35:15.930Z,97685.13
2022-09-24T06:37:18.459Z,97675.06
2022-09-24T06:39:24.679Z,97676.94
2022-09-24T06:41:27.223Z,97667.72
2022-09-24T06:43:30.663Z,97678.00
2022-09-24T06:45:34.541Z,97663.53
2022-09-24T06:47:37.171Z,97669.16
2022-09-24T06:49:40.522Z,97681.66
2022-09-24T06:51:43.234Z,97686.81
2022-09-24T06:53:45.807Z,97700.50
2022-09-24T06:55:49.248Z,97693.19
2022-09-24T06:58:05.526Z,97701.41
2022-09-24T07:00:09.501Z,97699.34
2022-09-24T07:02:12.172Z,97694.56
2022-09-24T07:04:14.890Z,97695.47
2022-09-24T07:06:17.425Z,97689.25
2022-09-24T07:08:20.071Z,97682.59
2022-09-24T07:10:24.701Z,97686.56
2022-09-24T07:12:27.518Z,97699.31
2022-09-24T07:14:30.326Z,97706.72
2022-09-24T07:16:33.215Z,97713.28
2022-09-24T07:18:37.731Z,97724.66
2022-09-24T07:20:40.955Z,97732.22
2022-09-24T07:22:43.684Z,97742.38
2022-09-24T07:24:46.613Z,97746.22
2022-09-24T07:26:49.380Z,97731.06
2022-09-24T07:28:52.034Z,97729.06
2022-09-24T07:30:59.922Z,97732.06
2022-09-24T07:33:03.603Z,97735.84
2022-09-24T07:35:06.886Z,97740.28
2022-09-24T07:37:09.672Z,97747.00
2022-09-24T07:39:12.264Z,97739.50
2022-09-24T07:41:15.055Z,97736.94
2022-09-24T07:43:17.703Z,97744.28
2022-09-24T07:45:20.835Z,97732.16
2022-09-24T07:47:23.758Z,97741.22
2022-09-24T07:49:26.824Z,97754.34
2022-09-24T07:51:29.822Z,97761.41
2022-09-24T07:53:32.371Z,97760.47
2022-09-24T07:55:39.690Z,97757.94
2022-09-24T07:58:00.704Z,97760.53
2022-09-24T08:00:03.662Z,97765.59
2022-09-24T08:02:17.630Z,97763.41
2022-09-24T08:04:20.826Z,97764.91
2022-09-24T08:06:24.615Z,97765.19
2022-09-24T08:08:27.526Z,97765.91
2022-09-24T08:10:30.277Z,97767.34
2022-09-24T08:12:33.185Z,97763.63
2022-09-24T08:14:36.490Z,97765.56
2022-09-24T08:16:40.883Z,97753.94
2022-09-24T08:18:44.336Z,97760.66
2022-09-24T08:20:47.339Z,97762.25
2022-09-24T08:22:50.098Z,97763.00
2022-09-24T08:24:53.504Z,97756.03
2022-09-24T08:26:56.220Z,97769.00
2022-09-24T08:28:58.812Z,97763.41
2022-09-24T08:31:04.386Z,97773.03
2022-09-24T08:33:07.723Z,97775.84
2022-09-24T08:35:10.570Z,97780.19
2022-09-24T08:37:14.099Z,97765.34
2022-09-24T08:39:17.061Z,97771.97
2022-09-24T08:41:47.492Z,97786.28
2022-09-24T08:44:11.640Z,97781.25
2022-09-24T08:46:40.106Z,97777.47
2022-09-24T08:48:47.771Z,97791.00
2022-09-24T08:50:58.275Z,97783.06
2022-09-24T08:53:17.188Z,97802.72
2022-09-24T08:55:36.873Z,97802.28
2022-09-24T08:57:59.180Z,97806.56
2022-09-24T09:00:02.066Z,97809.06
2022-09-24T09:02:45.417Z,97809.53
2022-09-24T09:05:10.226Z,97824.28
2022-09-24T09:07:24.572Z,97827.97
2022-09-24T09:09:41.328Z,97837.56
2022-09-24T09:11:51.689Z,97834.69
2022-09-24T09:14:03.847Z,97838.19
2022-09-24T09:16:18.147Z,97847.78
2022-09-24T09:18:32.015Z,97844.56
2022-09-24T09:20:40.962Z,97852.75
2022-09-24T09:22:48.180Z,97847.94
2022-09-24T09:24:53.460Z,97863.66
2022-09-24T09:26:56.945Z,97866.16
2022-09-24T09:29:01.700Z,97858.25
2022-09-24T09:31:31.902Z,97880.63
2022-09-24T09:33:43.319Z,97880.72
2022-09-24T09:35:48.550Z,97883.00
2022-09-24T09:38:20.844Z,97885.53
2022-09-24T09:40:30.826Z,97879.84
2022-09-24T09:42:37.216Z,97898.72
2022-09-24T09:44:42.128Z,97898.22
2022-09-24T09:46:53.612Z,97900.31
2022-09-24T09:49:03.226Z,97914.00
2022-09-24T09:51:07.013Z,97907.38
2022-09-24T09:53:31.387Z,97906.13
2022-09-24T09:55:36.905Z,97909.22
2022-09-24T09:57:41.996Z,97910.53
2022-09-24T09:59:50.085Z,97909.47
2022-09-24T10:01:56.653Z,97914.09
2022-09-24T10:04:03.374Z,97913.66
2022-09-24T10:06:07.635Z,97924.25
2022-09-24T10:08:22.200Z,97921.00
2022-09-24T10:10:27.414Z,97923.47
2022-09-24T10:12:30.642Z,97927.91
2022-09-24T10:14:33.667Z,97937.06
2022-09-24T10:16:39.504Z,97937.44
2022-09-24T10:18:51.607Z,97940.56
2022-09-24T10:20:55.927Z,97942.44
2022-09-24T10:23:03.406Z,97947.81
2022-09-24T10:25:06.713Z,97953.66
2022-09-24T10:27:24.928Z,97963.09
2022-09-24T10:29:51.643Z,97960.31
2022-09-24T10:31:54.565Z,97961.19
2022-09-24T10:33:59.333Z,97976.38
2022-09-24T10:36:07.877Z,97976.88
2022-09-24T10:38:21.799Z,97983.41
2022-09-24T10:40:31.313Z,97977.03
2022-09-24T10:42:34.203Z,97986.31
2022-09-24T10:44:37.757Z,97984.34
2022-09-24T10:47:02.231Z,97985.16
2022-09-24T10:49:27.534Z,97983.88
2022-09-24T10:51:52.332Z,97980.28
2022-09-24T10:54:22.938Z,97986.72
2022-09-24T10:56:33.860Z,97989.38
2022-09-24T10:58:51.820Z,97992.09
2022-09-24T11:01:15.883Z,97993.97
2022-09-24T11:03:29.828Z,97999.84
2022-09-24T11:05:38.817Z,97995.97
2022-09-24T11:08:03.223Z,98006.94
2022-09-24T11:10:51.902Z,98016.22
2022-09-24T11:13:03.486Z,98015.53
2022-09-24T11:15:27.096Z,98023.69
2022-09-24T11:18:00.351Z,98031.56
2022-09-24T11:20:13.788Z,98035.22
2022-09-24T11:22:23.400Z,98034.97
2022-09-24T11:24:50.142Z,98043.34
2022-09-24T11:27:49.782Z,98047.94
2022-09-24T11:30:01.503Z,98045.50
2022-09-24T11:32:39.745Z,98036.28
2022-09-24T11:34:58.516Z,98037.75
2022-09-24T11:37:13.311Z,98052.91
2022-09-24T11:39:18.472Z,98062.81
2022-09-24T11:41:50.786Z,98070.16
2022-09-24T11:43:56.010Z,98092.91
2022-09-24T11:46:30.875Z,98089.59
2022-09-24T11:48:52.318Z,98089.41
2022-09-24T11:51:08.887Z,98073.75
2022-09-24T11:53:40.644Z,98072.66
2022-09-24T11:55:53.853Z,98088.09
2022-09-24T11:58:05.217Z,98100.16
2022-09-24T12:00:13.107Z,98090.72
2022-09-24T12:02:25.317Z,98087.94
2022-09-24T12:04:48.944Z,98093.38
2022-09-24T12:07:13.055Z,98094.25
2022-09-24T12:09:39.898Z,98093.81
2022-09-24T12:11:49.657Z,98118.59
2022-09-24T12:14:19.899Z,98117.63
2022-09-24T12:16:27.163Z,98101.41
2022-09-24T12:18:36.931Z,98098.16
2022-09-24T12:21:13.258Z,98117.91
2022-09-24T12:23:19.020Z,98139.81
2022-09-24T12:25:22.001Z,98136.63
2022-09-24T12:27:34.617Z,98143.00
2022-09-24T12:30:10.808Z,98162.25
2022-09-24T12:34:53.500Z,98154.25
2022-09-24T12:37:02.718Z,98164.19
2022-09-24T12:39:15.594Z,98157.75
2022-09-24T12:41:29.909Z,98162.28
2022-09-24T12:43:57.656Z,98172.81
2022-09-24T12:46:05.586Z,98168.94
2022-09-24T12:48:16.070Z,98174.16
2022-09-24T12:50:31.733Z,98174.94
2022-09-24T12:52:43.133Z,98177.28
2022-09-24T12:54:46.307Z,98179.41
2022-09-24T12:56:49.193Z,98181.50
2022-09-24T12:58:52.162Z,98187.63
2022-09-24T13:01:07.476Z,98183.38
2022-09-24T13:03:36.771Z,98200.19
2022-09-24T13:05:45.919Z,98204.72
2022-09-24T13:08:25.240Z,98213.53
2022-09-24T13:10:38.501Z,98205.66
2022-09-24T13:12:41.218Z,98206.47
2022-09-24T13:15:02.941Z,98198.19
2022-09-24T13:17:08.024Z,98204.53
2022-09-24T13:19:34.487Z,98208.09
2022-09-24T13:21:40.281Z,98203.41
2022-09-24T13:23:44.211Z,98204.97
2022-09-24T13:26:05.101Z,98210.63
2022-09-24T13:28:23.337Z,98229.72
2022-09-24T13:30:41.167Z,98229.41
2022-09-24T13:32:55.825Z,98240.13
2022-09-24T13:35:00.160Z,98236.59
2022-09-24T13:37:15.634Z,98247.72
2022-09-24T13:39:23.369Z,98259.28
2022-09-24T13:41:47.973Z,98258.09
2022-09-24T13:44:00.006Z,98264.03
2022-09-24T13:46:07.983Z,98276.38
2022-09-24T13:48:34.411Z,98275.59
2022-09-24T13:50:59.071Z,98287.50
2022-09-24T13:53:07.723Z,98283.13
2022-09-24T13:55:32.000Z,98266.88
2022-09-24T13:57:46.513Z,98254.19
2022-09-24T13:59:49.176Z,98257.34
2022-09-24T14:01:51.957Z,98259.34
2022-09-24T14:04:07.395Z,98246.59
2022-09-24T14:06:22.022Z,98260.03
2022-09-24T14:08:27.634Z,98258.03
2022-09-24T14:10:30.470Z,98269.91
2022-09-24T14:12:33.535Z,98275.03
2022-09-24T14:14:36.407Z,98281.75
2022-09-24T14:16:39.031Z,98273.38
2022-09-24T14:18:41.729Z,98282.47
2022-09-24T14:20:46.425Z,98282.06
2022-09-24T14:22:49.522Z,98297.13
2022-09-24T14:25:07.944Z,98294.31
2022-09-24T14:27:16.141Z,98297.09
2022-09-24T14:29:26.934Z,98312.91
2022-09-24T14:31:30.310Z,98321.59
2022-09-24T14:33:34.336Z,98305.38
2022-09-24T14:35:39.241Z,98304.97
2022-09-24T14:37:50.896Z,98314.44
2022-09-24T14:40:05.384Z,98319.91
2022-09-24T14:42:22.192Z,98346.03
2022-09-24T14:44:30.189Z,98341.28
2022-09-24T14:46:49.899Z,98340.06
2022-09-24T14:48:53.470Z,98334.91
2022-09-24T14:50:56.805Z,98351.47
2022-09-24T14:53:00.992Z,98354.59
2022-09-24T14:55:21.067Z,98337.91
2022-09-24T14:57:25.728Z,98352.06
2022-09-24T14:59:31.284Z,98360.75
2022-09-24T15:01:34.348Z,98362.72
2022-09-24T15:04:08.079Z,98361.16
2022-09-24T15:06:21.684Z,98374.94
2022-09-24T15:08:30.726Z,98390.75
2022-09-24T15:10:33.438Z,98403.41
2022-09-24T15:12:40.394Z,98404.56
2022-09-24T15:14:54.852Z,98404.59
2022-09-24T15:17:10.708Z,98394.66
2022-09-24T15:19:21.799Z,98384.38
2022-09-24T15:21:24.618Z,98386.72
2022-09-24T15:23:27.267Z,98381.56
2022-09-24T15:25:30.019Z,98366.88
2022-09-24T15:27:37.224Z,98381.84
2022-09-24T15:29:40.016Z,98389.78
2022-09-24T15:31:43.050Z,98391.31
2022-09-24T15:33:45.886Z,98392.06
2022-09-24T15:35:49.183Z,98400.75
2022-09-24T15:37:51.989Z,98399.94
2022-09-24T15:40:06.769Z,98417.25
2022-09-24T15:42:09.558Z,98419.63
2022-09-24T15:44:23.239Z,98410.91
2022-09-24T15:46:26.669Z,98422.00
2022-09-24T15:48:29.488Z,98413.69
2022-09-24T15:50:32.171Z,98425.13
2022-09-24T15:52:42.031Z,98410.88
2022-09-24T15:54:44.729Z,98410.84
2022-09-24T15:56:52.440Z,98419.53
2022-09-24T15:58:55.832Z,98421.50
2022-09-24T16:00:58.537Z,98421.91
2022-09-24T16:03:01.952Z,98420.28
2022-09-24T16:05:11.476Z,98429.00
2022-09-24T16:07:14.240Z,98434.09
2022-09-24T16:09:17.027Z,98429.72
2022-09-24T16:11:19.703Z,98422.56
2022-09-24T16:13:23.445Z,98431.66
2022-09-24T16:15:26.168Z,98428.84
2022-09-24T16:17:29.593Z,98429.22
2022-09-24T16:19:32.246Z,98439.06
2022-09-24T16:21:34.923Z,98435.56
2022-09-24T16:23:37.550Z,98444.66
2022-09-24T16:25:41.138Z,98442.69
2022-09-24T16:27:44.214Z,98447.84
2022-09-24T16:29:46.816Z,98456.50
2022-09-24T16:31:49.744Z,98459.59
2022-09-24T16:33:52.487Z,98451.66
2022-09-24T16:35:55.135Z,98461.09
2022-09-24T16:37:57.823Z,98452.81
2022-09-24T16:40:00.574Z,98467.81
2022-09-24T16:42:03.277Z,98461.06
2022-09-24T16:44:07.086Z,98470.16
2022-09-24T16:46:10.449Z,98480.34
2022-09-24T16:48:13.816Z,98464.13
2022-09-24T16:50:17.179Z,98455.03
2022-09-24T16:52:19.802Z,98466.00
2022-09-24T16:54:23.206Z,98465.56
2022-09-24T16:56:26.058Z,98464.34
2022-09-24T16:58:28.651Z,98461.22
2022-09-24T17:00:31.858Z,98459.22
2022-09-24T17:02:34.887Z,98461.56
2022-09-24T17:04:37.575Z,98475.03
2022-09-24T17:06:40.756Z,98468.31
2022-09-24T17:09:01.854Z,98462.38
2022-09-24T17:11:04.591Z,98456.00
2022-09-24T17:13:08.044Z,98448.78
2022-09-24T17:15:11.471Z,98442.81
2022-09-24T17:17:14.356Z,98442.47
2022-09-24T17:19:17.083Z,98440.81
2022-09-24T17:21:19.721Z,98455.38
2022-09-24T17:23:22.301Z,98455.72
2022-09-24T17:25:24.939Z,98449.00
2022-09-24T17:27:28.959Z,98453.66
2022-09-24T17:29:31.963Z,98461.53
2022-09-24T17:31:34.871Z,98467.13
2022-09-24T17:33:45.127Z,98466.34
2022-09-24T17:35:58.549Z,98466.34
2022-09-24T17:38:01.175Z,98466.22
2022-09-24T17:40:04.501Z,98461.00
2022-09-24T17:42:08.116Z,98466.78
2022-09-24T17:44:13.232Z,98474.56
2022-09-24T17:46:22.596Z,98462.75
2022-09-24T17:48:29.551Z,98471.03
2022-09-24T17:50:32.688Z,98478.03
2022-09-24T17:52:35.349Z,98480.38
2022-09-24T17:54:37.934Z,98481.91
2022-09-24T17:56:40.792Z,98477.09
2022-09-24T17:58:47.086Z,98469.56
2022-09-24T18:00:51.565Z,98470.31
2022-09-24T18:02:55.396Z,98461.16
2022-09-24T18:04:58.360Z,98466.69
2022-09-24T18:07:01.452Z,98472.22
2022-09-24T18:09:05.057Z,98469.88
2022-09-24T18:11:22.971Z,98459.56
2022-09-24T18:13:26.368Z,98454.75
2022-09-24T18:15:30.889Z,98461.78
2022-09-24T18:17:33.883Z,98477.19
2022-09-24T18:19:36.953Z,98478.72
2022-09-24T18:21:40.331Z,98490.91
2022-09-24T18:23:43.822Z,98490.50
2022-09-24T18:25:48.163Z,98494.84
2022-09-24T18:27:51.181Z,98486.13
2022-09-24T18:29:54.461Z,98487.31
2022-09-24T18:31:58.007Z,98489.28
2022-09-24T18:34:07.302Z,98486.50
2022-09-24T18:36:14.177Z,98488.84
2022-09-24T18:38:17.293Z,98498.69
2022-09-24T18:40:20.340Z,98503.34
2022-09-24T18:42:23.184Z,98501.31
2022-09-24T18:44:26.695Z,98504.09
2022-09-24T18:46:30.875Z,98504.09
2022-09-24T18:48:34.151Z,98494.94
2022-09-24T18:50:43.551Z,98481.88
2022-09-24T18:52:46.217Z,98477.53
2022-09-24T18:54:49.026Z,98488.84
2022-09-24T18:56:51.663Z,98501.06
2022-09-24T18:59:09.616Z,98510.06
2022-09-24T19:01:13.316Z,98514.41
2022-09-24T19:03:18.133Z,98506.56
2022-09-24T19:05:21.673Z,98512.53
2022-09-24T19:07:24.286Z,98508.91
2022-09-24T19:09:26.954Z,98504.56
2022-09-24T19:11:30.655Z,98510.88
2022-09-24T19:13:33.740Z,98518.59
2022-09-24T19:15:38.285Z,98515.34
2022-09-24T19:17:40.988Z,98516.41
2022-09-24T19:19:49.929Z,98518.31
2022-09-24T19:21:54.850Z,98534.41
2022-09-24T19:23:59.113Z,98532.81
2022-09-24T19:26:02.801Z,98534.00
2022-09-24T19:28:07.315Z,98534.41
2022-09-24T19:30:10.314Z,98537.56
2022-09-24T19:32:13.035Z,98542.28
2022-09-24T19:34:15.751Z,98549.66
2022-09-24T19:36:18.959Z,98552.84
2022-09-24T19:38:32.811Z,98542.28
2022-09-24T19:40:35.554Z,98533.13
2022-09-24T19:42:38.288Z,98528.47
2022-09-24T19:44:40.886Z,98534.69
2022-09-24T19:46:43.989Z,98545.72
2022-09-24T19:48:48.888Z,98541.31
2022-09-24T19:50:52.062Z,98540.44
2022-09-24T19:52:56.155Z,98538.34
2022-09-24T19:54:58.779Z,98537.44
2022-09-24T19:57:01.424Z,98539.69
2022-09-24T19:59:05.154Z,98530.44
2022-09-24T20:01:11.390Z,98525.22
2022-09-24T20:03:18.613Z,98518.78
2022-09-24T20:05:21.365Z,98502.81
2022-09-24T20:07:24.022Z,98526.44
2022-09-24T20:09:26.777Z,98537.72
2022-09-24T20:11:32.723Z,98537.72
2022-09-24T20:13:36.026Z,98539.69
2022-09-24T20:15:42.035Z,98537.19
2022-09-24T20:17:44.817Z,98556.22
2022-09-24T20:19:47.473Z,98566.06
2022-09-24T20:21:50.292Z,98574.34
2022-09-24T20:23:54.733Z,98589.34
2022-09-24T20:26:15.754Z,98579.94
2022-09-24T20:28:18.436Z,98565.34
2022-09-24T20:30:24.033Z,98567.41
2022-09-24T20:32:26.779Z,98556.72
2022-09-24T20:34:34.076Z,98563.84
2022-09-24T20:36:37.081Z,98559.50
2022-09-24T20:38:47.714Z,98559.13
2022-09-24T20:40:50.466Z,98562.59
2022-09-24T20:42:53.123Z,98544.38
2022-09-24T20:44:56.272Z,98552.28
2022-09-24T20:46:59.727Z,98551.50
2022-09-24T20:49:02.592Z,98558.88
2022-09-24T20:51:13.048Z,98552.13
2022-09-24T20:53:15.699Z,98547.69
2022-09-24T20:55:18.337Z,98547.16
2022-09-24T20:57:20.960Z,98556.50
2022-09-24T20:59:25.786Z,98558.38
2022-09-24T21:01:29.137Z,98557.84
2022-09-24T21:03:49.651Z,98556.50
2022-09-24T21:05:53.008Z,98557.47
2022-09-24T21:07:55.656Z,98569.44
2022-09-24T21:09:58.447Z,98570.47
2022-09-24T21:12:03.539Z,98562.03
2022-09-24T21:14:10.026Z,98568.59
2022-09-24T21:16:13.136Z,98564.59
2022-09-24T21:18:23.304Z,98558.31
2022-09-24T21:20:27.242Z,98560.59
2022-09-24T21:22:30.021Z,98557.06
2022-09-24T21:24:33.246Z,98559.69
2022-09-24T21:26:38.774Z,98560.94
2022-09-24T21:28:43.595Z,98560.59
2022-09-24T21:30:57.175Z,98553.94
2022-09-24T21:33:00.288Z,98548.34
2022-09-24T21:35:02.897Z,98558.66
2022-09-24T21:37:06.146Z,98548.81
2022-09-24T21:39:17.147Z,98560.22
2022-09-24T21:41:20.381Z,98559.09
2022-09-24T21:43:26.911Z,98559.88
2022-09-24T21:45:33.206Z,98561.94
2022-09-24T21:47:37.434Z,98566.63
2022-09-24T21:49:40.223Z,98554.84
2022-09-24T21:51:43.583Z,98553.47
2022-09-24T21:53:46.461Z,98565.41
2022-09-24T21:55:49.419Z,98562.97
2022-09-24T21:57:52.019Z,98562.56
2022-09-24T22:00:00.644Z,98561.13
2022-09-24T22:02:04.600Z,98569.31
2022-09-24T22:04:08.089Z,98570.09
2022-09-24T22:06:10.838Z,98566.09
2022-09-24T22:08:15.746Z,98562.91
2022-09-24T22:10:18.401Z,98564.03
2022-09-24T22:12:21.000Z,98567.97
2022-09-24T22:14:23.845Z,98566.00
2022-09-24T22:16:26.893Z,98563.97
2022-09-24T22:18:30.679Z,98574.63
2022-09-24T22:20:33.403Z,98581.63
2022-09-24T22:22:36.031Z,98581.97
2022-09-24T22:24:38.922Z,98579.22
2022-09-24T22:26:41.749Z,98588.19
2022-09-24T22:28:44.746Z,98593.69
2022-09-24T22:30:47.422Z,98585.31
2022-09-24T22:32:50.209Z,98596.91
2022-09-24T22:35:11.544Z,98596.47
2022-09-24T22:37:14.233Z,98586.88
2022-09-24T22:39:16.967Z,98594.53
2022-09-24T22:41:19.678Z,98592.22
2022-09-24T22:43:22.355Z,98590.63
2022-09-24T22:45:25.135Z,98593.38
2022-09-24T22:47:27.806Z,98581.59
2022-09-24T22:49:31.569Z,98578.38
2022-09-24T22:51:34.490Z,98562.59
2022-09-24T22:53:39.801Z,98579.50
2022-09-24T22:55:42.465Z,98581.13
2022-09-24T22:57:45.220Z,98586.19
2022-09-24T22:59:47.912Z,98593.50
2022-09-24T23:01:50.660Z,98594.94
2022-09-24T23:03:55.118Z,98607.19
2022-09-24T23:05:59.640Z,98601.56
2022-09-24T23:08:02.510Z,98599.84
2022-09-24T23:10:06.826Z,98600.69
2022-09-24T23:12:09.600Z,98589.22
2022-09-24T23:14:14.994Z,98583.94
2022-09-24T23:16:23.503Z,98582.81
2022-09-24T23:18:29.160Z,98582.69
2022-09-24T23:20:31.716Z,98592.19
2022-09-24T23:22:34.555Z,98585.91
2022-09-24T23:24:37.777Z,98582.03
2022-09-24T23:26:40.786Z,98579.28
2022-09-24T23:28:44.369Z,98572.16
2022-09-24T23:30:57.940Z,98567.03
2022-09-24T23:33:00.662Z,98559.00
2022-09-24T23:35:03.601Z,98566.19
2022-09-24T23:37:06.377Z,98571.38
2022-09-24T23:39:09.055Z,98573.78
2022-09-24T23:41:13.524Z,98584.78
2022-09-24T23:43:16.244Z,98580.41
2022-09-24T23:45:19.059Z,98579.59
2022-09-24T23:47:22.849Z,98578.34
2022-09-24T23:49:25.504Z,98584.78
2022-09-24T23:51:28.236Z,98582.34
2022-09-24T23:53:31.676Z,98572.88
2022-09-24T23:55:34.280Z,98568.53
2022-09-24T23:57:36.883Z,98574.38
2022-09-24T23:59:39.679Z,98569.66
